Terminal Aerodrome Forecast
Issued by NWS Spokane, WA

Home | Current Version | Previous Version | Text Only | Print | Product List | Glossary On
Versions: 1 2 3 4 5 6 7 8 9 10 11 12 13 14 15 16 17 18
000
FTUS46 KOTX 211129 RRA
TAFEAT
TAF
KEAT 211129Z 2111/2212 35004KT P6SM VCSH BKN080 OVC100
     FM211500 32006KT P6SM SCT080 BKN120
     FM212000 33005KT P6SM VCSH SCT050 BKN100
     FM220300 30007KT P6SM BKN120=

USA.gov is the U.S. government's official web portal to all federal, state and local government web resources and services.